sensor_id;sensor_type;location;lat;lon;timestamp;P1;durP1;ratioP1;P2;durP2;ratioP2
75413;SDS011;64758;52.122;5.404;2024-02-28T00:00:57;23.57;;;9.90;;
75413;SDS011;64758;52.122;5.404;2024-02-28T00:03:24;25.52;;;9.85;;
75413;SDS011;64758;52.122;5.404;2024-02-28T00:05:50;25.25;;;9.60;;
75413;SDS011;64758;52.122;5.404;2024-02-28T00:08:17;22.65;;;9.57;;
75413;SDS011;64758;52.122;5.404;2024-02-28T00:10:45;23.88;;;10.75;;
75413;SDS011;64758;52.122;5.404;2024-02-28T00:13:12;25.63;;;10.70;;
75413;SDS011;64758;52.122;5.404;2024-02-28T00:15:41;24.73;;;10.05;;
75413;SDS011;64758;52.122;5.404;2024-02-28T00:18:08;21.77;;;9.75;;
75413;SDS011;64758;52.122;5.404;2024-02-28T00:20:36;29.13;;;9.73;;
75413;SDS011;64758;52.122;5.404;2024-02-28T00:23:03;24.92;;;9.73;;
75413;SDS011;64758;52.122;5.404;2024-02-28T00:25:29;21.63;;;9.07;;
75413;SDS011;64758;52.122;5.404;2024-02-28T00:27:56;24.88;;;9.80;;
75413;SDS011;64758;52.122;5.404;2024-02-28T00:30:23;18.25;;;8.55;;
75413;SDS011;64758;52.122;5.404;2024-02-28T00:32:49;19.95;;;8.65;;
75413;SDS011;64758;52.122;5.404;2024-02-28T00:35:16;16.63;;;8.38;;
75413;SDS011;64758;52.122;5.404;2024-02-28T00:37:42;17.00;;;8.20;;
75413;SDS011;64758;52.122;5.404;2024-02-28T00:40:09;17.83;;;8.13;;
75413;SDS011;64758;52.122;5.404;2024-02-28T00:42:36;21.70;;;8.23;;
75413;SDS011;64758;52.122;5.404;2024-02-28T00:45:03;19.42;;;8.15;;
75413;SDS011;64758;52.122;5.404;2024-02-28T00:47:30;21.25;;;8.27;;
75413;SDS011;64758;52.122;5.404;2024-02-28T00:49:56;19.50;;;8.60;;
75413;SDS011;64758;52.122;5.404;2024-02-28T00:52:23;20.10;;;8.85;;
75413;SDS011;64758;52.122;5.404;2024-02-28T00:54:51;21.95;;;8.88;;
75413;SDS011;64758;52.122;5.404;2024-02-28T00:57:18;22.17;;;9.23;;
75413;SDS011;64758;52.122;5.404;2024-02-28T00:59:44;20.92;;;9.25;;
75413;SDS011;64758;52.122;5.404;2024-02-28T01:02:14;21.20;;;8.87;;
75413;SDS011;64758;52.122;5.404;2024-02-28T01:04:41;26.05;;;9.02;;
75413;SDS011;64758;52.122;5.404;2024-02-28T01:07:08;18.92;;;8.48;;
75413;SDS011;64758;52.122;5.404;2024-02-28T01:09:34;20.67;;;8.55;;
75413;SDS011;64758;52.122;5.404;2024-02-28T01:12:01;18.67;;;8.18;;
75413;SDS011;64758;52.122;5.404;2024-02-28T01:14:29;21.20;;;8.57;;
75413;SDS011;64758;52.122;5.404;2024-02-28T01:16:55;23.33;;;9.38;;
75413;SDS011;64758;52.122;5.404;2024-02-28T01:19:22;21.98;;;9.77;;
75413;SDS011;64758;52.122;5.404;2024-02-28T01:21:48;20.42;;;8.70;;
75413;SDS011;64758;52.122;5.404;2024-02-28T01:24:15;19.90;;;8.77;;
75413;SDS011;64758;52.122;5.404;2024-02-28T01:26:42;18.43;;;8.60;;
75413;SDS011;64758;52.122;5.404;2024-02-28T01:29:08;22.20;;;8.82;;
75413;SDS011;64758;52.122;5.404;2024-02-28T01:31:35;18.58;;;8.55;;
75413;SDS011;64758;52.122;5.404;2024-02-28T01:34:01;17.45;;;7.65;;
75413;SDS011;64758;52.122;5.404;2024-02-28T01:36:28;16.80;;;7.78;;
75413;SDS011;64758;52.122;5.404;2024-02-28T01:38:54;20.13;;;8.93;;
75413;SDS011;64758;52.122;5.404;2024-02-28T01:41:21;20.98;;;8.18;;
75413;SDS011;64758;52.122;5.404;2024-02-28T01:43:48;22.02;;;9.15;;
75413;SDS011;64758;52.122;5.404;2024-02-28T01:46:24;27.50;;;10.45;;
75413;SDS011;64758;52.122;5.404;2024-02-28T01:48:53;30.20;;;11.57;;
75413;SDS011;64758;52.122;5.404;2024-02-28T01:51:22;33.73;;;11.63;;
75413;SDS011;64758;52.122;5.404;2024-02-28T01:53:50;44.75;;;12.07;;
75413;SDS011;64758;52.122;5.404;2024-02-28T01:56:19;36.60;;;11.82;;
75413;SDS011;64758;52.122;5.404;2024-02-28T01:58:47;41.63;;;11.95;;
75413;SDS011;64758;52.122;5.404;2024-02-28T02:01:15;53.10;;;11.13;;
75413;SDS011;64758;52.122;5.404;2024-02-28T02:03:43;59.27;;;11.10;;
75413;SDS011;64758;52.122;5.404;2024-02-28T02:06:10;73.32;;;12.20;;
75413;SDS011;64758;52.122;5.404;2024-02-28T02:08:37;36.00;;;11.00;;
75413;SDS011;64758;52.122;5.404;2024-02-28T02:11:04;97.82;;;13.07;;
75413;SDS011;64758;52.122;5.404;2024-02-28T02:13:32;67.47;;;10.82;;
75413;SDS011;64758;52.122;5.404;2024-02-28T02:15:59;57.67;;;11.97;;
75413;SDS011;64758;52.122;5.404;2024-02-28T02:18:25;70.70;;;11.15;;
75413;SDS011;64758;52.122;5.404;2024-02-28T02:20:54;82.50;;;11.32;;
75413;SDS011;64758;52.122;5.404;2024-02-28T02:23:25;51.60;;;10.90;;
75413;SDS011;64758;52.122;5.404;2024-02-28T02:25:51;60.50;;;10.20;;
75413;SDS011;64758;52.122;5.404;2024-02-28T02:28:18;33.10;;;10.70;;
75413;SDS011;64758;52.122;5.404;2024-02-28T02:30:44;56.80;;;11.43;;
75413;SDS011;64758;52.122;5.404;2024-02-28T02:33:13;45.60;;;11.30;;
75413;SDS011;64758;52.122;5.404;2024-02-28T02:35:39;50.63;;;10.32;;
75413;SDS011;64758;52.122;5.404;2024-02-28T02:38:06;35.40;;;10.82;;
75413;SDS011;64758;52.122;5.404;2024-02-28T02:40:33;33.17;;;10.60;;
75413;SDS011;64758;52.122;5.404;2024-02-28T02:42:59;30.75;;;10.32;;
75413;SDS011;64758;52.122;5.404;2024-02-28T02:45:25;29.50;;;11.65;;
75413;SDS011;64758;52.122;5.404;2024-02-28T02:47:52;37.42;;;11.07;;
75413;SDS011;64758;52.122;5.404;2024-02-28T02:50:18;33.65;;;10.35;;
75413;SDS011;64758;52.122;5.404;2024-02-28T02:52:45;26.73;;;9.80;;
75413;SDS011;64758;52.122;5.404;2024-02-28T02:55:12;25.05;;;10.10;;
75413;SDS011;64758;52.122;5.404;2024-02-28T02:57:39;28.25;;;11.07;;
75413;SDS011;64758;52.122;5.404;2024-02-28T03:00:09;23.13;;;10.77;;
75413;SDS011;64758;52.122;5.404;2024-02-28T03:02:38;27.05;;;9.80;;
75413;SDS011;64758;52.122;5.404;2024-02-28T03:05:06;22.90;;;9.93;;
75413;SDS011;64758;52.122;5.404;2024-02-28T03:07:33;27.60;;;11.27;;
75413;SDS011;64758;52.122;5.404;2024-02-28T03:10:00;27.08;;;10.77;;
75413;SDS011;64758;52.122;5.404;2024-02-28T03:12:28;28.98;;;10.23;;
75413;SDS011;64758;52.122;5.404;2024-02-28T03:14:54;28.75;;;11.27;;
75413;SDS011;64758;52.122;5.404;2024-02-28T03:17:21;30.00;;;10.13;;
75413;SDS011;64758;52.122;5.404;2024-02-28T03:19:48;28.70;;;10.23;;
75413;SDS011;64758;52.122;5.404;2024-02-28T03:22:15;24.65;;;10.52;;
75413;SDS011;64758;52.122;5.404;2024-02-28T03:24:41;21.35;;;10.05;;
75413;SDS011;64758;52.122;5.404;2024-02-28T03:27:08;29.25;;;10.07;;
75413;SDS011;64758;52.122;5.404;2024-02-28T03:29:35;25.30;;;10.63;;
75413;SDS011;64758;52.122;5.404;2024-02-28T03:32:04;25.27;;;10.25;;
75413;SDS011;64758;52.122;5.404;2024-02-28T03:34:31;25.08;;;9.70;;
75413;SDS011;64758;52.122;5.404;2024-02-28T03:36:59;23.40;;;9.38;;
75413;SDS011;64758;52.122;5.404;2024-02-28T03:39:26;27.42;;;10.02;;
75413;SDS011;64758;52.122;5.404;2024-02-28T03:41:52;23.33;;;10.20;;
75413;SDS011;64758;52.122;5.404;2024-02-28T03:44:19;25.52;;;10.60;;
75413;SDS011;64758;52.122;5.404;2024-02-28T03:46:45;28.52;;;9.60;;
75413;SDS011;64758;52.122;5.404;2024-02-28T03:49:12;25.58;;;10.93;;
75413;SDS011;64758;52.122;5.404;2024-02-28T03:51:39;27.55;;;10.25;;
75413;SDS011;64758;52.122;5.404;2024-02-28T03:54:07;27.93;;;9.73;;
75413;SDS011;64758;52.122;5.404;2024-02-28T03:56:34;29.02;;;10.00;;
75413;SDS011;64758;52.122;5.404;2024-02-28T03:59:03;23.17;;;10.02;;
75413;SDS011;64758;52.122;5.404;2024-02-28T04:01:30;23.23;;;10.45;;
75413;SDS011;64758;52.122;5.404;2024-02-28T04:03:57;22.92;;;10.65;;
75413;SDS011;64758;52.122;5.404;2024-02-28T04:06:24;22.93;;;9.97;;
75413;SDS011;64758;52.122;5.404;2024-02-28T04:08:51;21.40;;;9.75;;
75413;SDS011;64758;52.122;5.404;2024-02-28T04:11:17;18.20;;;9.20;;
75413;SDS011;64758;52.122;5.404;2024-02-28T04:13:44;22.35;;;10.10;;
75413;SDS011;64758;52.122;5.404;2024-02-28T04:16:11;19.63;;;8.68;;
75413;SDS011;64758;52.122;5.404;2024-02-28T04:18:39;19.30;;;9.77;;
75413;SDS011;64758;52.122;5.404;2024-02-28T04:21:05;21.73;;;10.15;;
75413;SDS011;64758;52.122;5.404;2024-02-28T04:23:32;19.27;;;9.27;;
75413;SDS011;64758;52.122;5.404;2024-02-28T04:25:59;17.90;;;8.80;;
75413;SDS011;64758;52.122;5.404;2024-02-28T04:28:25;19.35;;;9.15;;
75413;SDS011;64758;52.122;5.404;2024-02-28T04:30:52;21.43;;;9.70;;
75413;SDS011;64758;52.122;5.404;2024-02-28T04:33:18;23.17;;;10.25;;
75413;SDS011;64758;52.122;5.404;2024-02-28T04:35:45;21.08;;;9.63;;
75413;SDS011;64758;52.122;5.404;2024-02-28T04:38:12;18.65;;;9.55;;
75413;SDS011;64758;52.122;5.404;2024-02-28T04:40:38;20.63;;;9.75;;
75413;SDS011;64758;52.122;5.404;2024-02-28T04:43:05;20.67;;;9.43;;
75413;SDS011;64758;52.122;5.404;2024-02-28T04:45:32;18.40;;;9.02;;
75413;SDS011;64758;52.122;5.404;2024-02-28T04:47:58;19.48;;;9.73;;
75413;SDS011;64758;52.122;5.404;2024-02-28T04:50:25;24.02;;;10.02;;
75413;SDS011;64758;52.122;5.404;2024-02-28T04:52:51;19.70;;;9.35;;
75413;SDS011;64758;52.122;5.404;2024-02-28T04:55:18;19.27;;;9.30;;
75413;SDS011;64758;52.122;5.404;2024-02-28T04:57:44;19.85;;;9.95;;
75413;SDS011;64758;52.122;5.404;2024-02-28T05:00:11;19.48;;;10.30;;
75413;SDS011;64758;52.122;5.404;2024-02-28T05:02:38;18.10;;;8.93;;
75413;SDS011;64758;52.122;5.404;2024-02-28T05:05:05;17.92;;;9.57;;
75413;SDS011;64758;52.122;5.404;2024-02-28T05:07:32;19.17;;;8.93;;
75413;SDS011;64758;52.122;5.404;2024-02-28T05:09:58;20.13;;;9.98;;
75413;SDS011;64758;52.122;5.404;2024-02-28T05:12:25;19.35;;;9.35;;
75413;SDS011;64758;52.122;5.404;2024-02-28T05:14:51;20.05;;;9.07;;
75413;SDS011;64758;52.122;5.404;2024-02-28T05:17:20;22.38;;;10.25;;
75413;SDS011;64758;52.122;5.404;2024-02-28T05:19:47;19.17;;;9.57;;
75413;SDS011;64758;52.122;5.404;2024-02-28T05:22:13;18.42;;;9.40;;
75413;SDS011;64758;52.122;5.404;2024-02-28T05:24:47;17.73;;;8.85;;
75413;SDS011;64758;52.122;5.404;2024-02-28T05:27:13;16.73;;;9.00;;
75413;SDS011;64758;52.122;5.404;2024-02-28T05:29:40;19.67;;;9.43;;
75413;SDS011;64758;52.122;5.404;2024-02-28T05:32:08;17.43;;;8.47;;
75413;SDS011;64758;52.122;5.404;2024-02-28T05:34:35;14.65;;;8.88;;
75413;SDS011;64758;52.122;5.404;2024-02-28T05:37:02;20.73;;;9.80;;
75413;SDS011;64758;52.122;5.404;2024-02-28T05:39:28;18.13;;;9.75;;
75413;SDS011;64758;52.122;5.404;2024-02-28T05:41:57;17.90;;;9.23;;
75413;SDS011;64758;52.122;5.404;2024-02-28T05:44:23;17.83;;;8.87;;
75413;SDS011;64758;52.122;5.404;2024-02-28T05:46:50;17.83;;;8.98;;
75413;SDS011;64758;52.122;5.404;2024-02-28T05:49:17;16.45;;;8.98;;
75413;SDS011;64758;52.122;5.404;2024-02-28T05:51:44;16.83;;;9.45;;
75413;SDS011;64758;52.122;5.404;2024-02-28T05:54:10;17.02;;;9.20;;
75413;SDS011;64758;52.122;5.404;2024-02-28T05:56:37;17.83;;;10.37;;
75413;SDS011;64758;52.122;5.404;2024-02-28T05:59:03;17.90;;;9.43;;
75413;SDS011;64758;52.122;5.404;2024-02-28T06:01:30;18.52;;;9.43;;
75413;SDS011;64758;52.122;5.404;2024-02-28T06:03:57;17.27;;;9.23;;
75413;SDS011;64758;52.122;5.404;2024-02-28T06:06:24;16.20;;;9.52;;
75413;SDS011;64758;52.122;5.404;2024-02-28T06:08:52;18.17;;;9.90;;
75413;SDS011;64758;52.122;5.404;2024-02-28T06:11:18;16.13;;;9.63;;
75413;SDS011;64758;52.122;5.404;2024-02-28T06:13:45;21.63;;;10.00;;
75413;SDS011;64758;52.122;5.404;2024-02-28T06:16:14;21.08;;;11.15;;
75413;SDS011;64758;52.122;5.404;2024-02-28T06:18:42;22.02;;;10.88;;
75413;SDS011;64758;52.122;5.404;2024-02-28T06:21:08;20.33;;;10.93;;
75413;SDS011;64758;52.122;5.404;2024-02-28T06:23:35;18.60;;;10.50;;
75413;SDS011;64758;52.122;5.404;2024-02-28T06:26:01;18.38;;;10.63;;
75413;SDS011;64758;52.122;5.404;2024-02-28T06:28:28;20.00;;;10.18;;
75413;SDS011;64758;52.122;5.404;2024-02-28T06:30:55;18.30;;;10.68;;
75413;SDS011;64758;52.122;5.404;2024-02-28T06:33:21;16.77;;;10.53;;
75413;SDS011;64758;52.122;5.404;2024-02-28T06:35:48;17.63;;;10.40;;
75413;SDS011;64758;52.122;5.404;2024-02-28T06:38:15;22.73;;;11.70;;
75413;SDS011;64758;52.122;5.404;2024-02-28T06:40:41;18.70;;;10.82;;
75413;SDS011;64758;52.122;5.404;2024-02-28T06:43:08;18.33;;;11.73;;
75413;SDS011;64758;52.122;5.404;2024-02-28T06:45:35;18.20;;;11.30;;
75413;SDS011;64758;52.122;5.404;2024-02-28T06:48:04;20.77;;;12.00;;
75413;SDS011;64758;52.122;5.404;2024-02-28T06:50:31;20.60;;;12.25;;
75413;SDS011;64758;52.122;5.404;2024-02-28T06:52:57;18.42;;;10.77;;
75413;SDS011;64758;52.122;5.404;2024-02-28T06:55:24;19.90;;;11.43;;
75413;SDS011;64758;52.122;5.404;2024-02-28T06:57:51;17.53;;;10.73;;
75413;SDS011;64758;52.122;5.404;2024-02-28T07:00:18;19.45;;;10.93;;
75413;SDS011;64758;52.122;5.404;2024-02-28T07:02:45;17.75;;;11.00;;
75413;SDS011;64758;52.122;5.404;2024-02-28T07:05:12;17.48;;;10.73;;
75413;SDS011;64758;52.122;5.404;2024-02-28T07:07:39;19.10;;;11.68;;
75413;SDS011;64758;52.122;5.404;2024-02-28T07:10:06;22.27;;;10.63;;
75413;SDS011;64758;52.122;5.404;2024-02-28T07:12:33;16.60;;;9.48;;
75413;SDS011;64758;52.122;5.404;2024-02-28T07:14:59;19.42;;;11.50;;
75413;SDS011;64758;52.122;5.404;2024-02-28T07:17:26;20.30;;;11.43;;
75413;SDS011;64758;52.122;5.404;2024-02-28T07:19:52;18.25;;;10.70;;
75413;SDS011;64758;52.122;5.404;2024-02-28T07:22:19;20.00;;;11.00;;
75413;SDS011;64758;52.122;5.404;2024-02-28T07:24:47;17.83;;;10.68;;
75413;SDS011;64758;52.122;5.404;2024-02-28T07:27:14;15.50;;;10.23;;
75413;SDS011;64758;52.122;5.404;2024-02-28T07:29:42;20.00;;;11.73;;
75413;SDS011;64758;52.122;5.404;2024-02-28T07:32:08;16.08;;;10.55;;
75413;SDS011;64758;52.122;5.404;2024-02-28T07:34:35;17.97;;;10.83;;
75413;SDS011;64758;52.122;5.404;2024-02-28T07:37:01;16.67;;;10.68;;
75413;SDS011;64758;52.122;5.404;2024-02-28T07:39:30;16.45;;;10.30;;
75413;SDS011;64758;52.122;5.404;2024-02-28T07:41:57;16.10;;;10.65;;
75413;SDS011;64758;52.122;5.404;2024-02-28T07:44:25;15.75;;;9.82;;
75413;SDS011;64758;52.122;5.404;2024-02-28T07:46:51;17.00;;;10.53;;
75413;SDS011;64758;52.122;5.404;2024-02-28T07:49:18;15.68;;;10.05;;
75413;SDS011;64758;52.122;5.404;2024-02-28T07:51:45;14.70;;;10.85;;
75413;SDS011;64758;52.122;5.404;2024-02-28T07:54:12;21.52;;;10.90;;
75413;SDS011;64758;52.122;5.404;2024-02-28T07:56:38;18.00;;;10.82;;
75413;SDS011;64758;52.122;5.404;2024-02-28T07:59:05;14.70;;;10.37;;
75413;SDS011;64758;52.122;5.404;2024-02-28T08:01:31;21.38;;;11.07;;
75413;SDS011;64758;52.122;5.404;2024-02-28T08:03:58;17.05;;;10.68;;
75413;SDS011;64758;52.122;5.404;2024-02-28T08:06:26;15.93;;;10.50;;
75413;SDS011;64758;52.122;5.404;2024-02-28T08:08:52;15.40;;;10.75;;
75413;SDS011;64758;52.122;5.404;2024-02-28T08:11:19;15.83;;;10.73;;
75413;SDS011;64758;52.122;5.404;2024-02-28T08:13:46;13.80;;;9.90;;
75413;SDS011;64758;52.122;5.404;2024-02-28T08:16:12;15.13;;;10.90;;
75413;SDS011;64758;52.122;5.404;2024-02-28T08:18:39;16.27;;;10.90;;
75413;SDS011;64758;52.122;5.404;2024-02-28T08:21:06;17.85;;;10.52;;
75413;SDS011;64758;52.122;5.404;2024-02-28T08:23:32;17.73;;;10.93;;
75413;SDS011;64758;52.122;5.404;2024-02-28T08:25:59;19.33;;;10.98;;
75413;SDS011;64758;52.122;5.404;2024-02-28T08:28:26;15.88;;;10.27;;
75413;SDS011;64758;52.122;5.404;2024-02-28T08:30:52;14.98;;;10.93;;
75413;SDS011;64758;52.122;5.404;2024-02-28T08:33:19;17.50;;;11.65;;
75413;SDS011;64758;52.122;5.404;2024-02-28T08:35:50;17.03;;;10.67;;
75413;SDS011;64758;52.122;5.404;2024-02-28T08:38:18;17.77;;;11.55;;
75413;SDS011;64758;52.122;5.404;2024-02-28T08:40:44;19.40;;;11.88;;
75413;SDS011;64758;52.122;5.404;2024-02-28T08:43:12;19.30;;;12.43;;
75413;SDS011;64758;52.122;5.404;2024-02-28T08:45:38;17.20;;;11.27;;
75413;SDS011;64758;52.122;5.404;2024-02-28T08:48:05;21.17;;;12.37;;
75413;SDS011;64758;52.122;5.404;2024-02-28T08:50:33;16.75;;;11.30;;
75413;SDS011;64758;52.122;5.404;2024-02-28T08:53:00;18.80;;;11.55;;
75413;SDS011;64758;52.122;5.404;2024-02-28T08:55:27;16.80;;;12.00;;
75413;SDS011;64758;52.122;5.404;2024-02-28T08:57:55;16.30;;;11.70;;
75413;SDS011;64758;52.122;5.404;2024-02-28T09:00:21;17.67;;;12.20;;
75413;SDS011;64758;52.122;5.404;2024-02-28T09:02:49;17.13;;;12.43;;
75413;SDS011;64758;52.122;5.404;2024-02-28T09:05:15;19.15;;;12.00;;
75413;SDS011;64758;52.122;5.404;2024-02-28T09:07:42;15.68;;;11.50;;
75413;SDS011;64758;52.122;5.404;2024-02-28T09:10:09;19.50;;;12.85;;
75413;SDS011;64758;52.122;5.404;2024-02-28T09:12:37;19.80;;;12.80;;
75413;SDS011;64758;52.122;5.404;2024-02-28T09:15:04;18.90;;;12.57;;
75413;SDS011;64758;52.122;5.404;2024-02-28T09:17:31;17.27;;;12.32;;
75413;SDS011;64758;52.122;5.404;2024-02-28T09:19:58;17.77;;;12.88;;
75413;SDS011;64758;52.122;5.404;2024-02-28T09:22:29;19.10;;;12.48;;
75413;SDS011;64758;52.122;5.404;2024-02-28T09:24:55;22.23;;;13.98;;
75413;SDS011;64758;52.122;5.404;2024-02-28T09:27:22;18.92;;;13.93;;
75413;SDS011;64758;52.122;5.404;2024-02-28T09:29:50;21.58;;;13.98;;
75413;SDS011;64758;52.122;5.404;2024-02-28T09:32:17;20.95;;;13.90;;
75413;SDS011;64758;52.122;5.404;2024-02-28T09:34:44;20.42;;;14.38;;
75413;SDS011;64758;52.122;5.404;2024-02-28T09:37:11;22.05;;;15.00;;
75413;SDS011;64758;52.122;5.404;2024-02-28T09:39:39;19.83;;;13.70;;
75413;SDS011;64758;52.122;5.404;2024-02-28T09:42:06;20.15;;;14.40;;
75413;SDS011;64758;52.122;5.404;2024-02-28T09:44:34;22.70;;;14.30;;
75413;SDS011;64758;52.122;5.404;2024-02-28T09:47:03;21.98;;;14.85;;
75413;SDS011;64758;52.122;5.404;2024-02-28T09:49:31;21.88;;;14.35;;
75413;SDS011;64758;52.122;5.404;2024-02-28T09:51:58;22.37;;;13.40;;
75413;SDS011;64758;52.122;5.404;2024-02-28T09:54:25;22.00;;;13.88;;
75413;SDS011;64758;52.122;5.404;2024-02-28T09:56:52;22.60;;;13.48;;
75413;SDS011;64758;52.122;5.404;2024-02-28T09:59:19;18.77;;;12.65;;
75413;SDS011;64758;52.122;5.404;2024-02-28T10:01:57;20.30;;;13.90;;
75413;SDS011;64758;52.122;5.404;2024-02-28T10:04:25;19.23;;;13.00;;
75413;SDS011;64758;52.122;5.404;2024-02-28T10:06:52;20.38;;;12.95;;
75413;SDS011;64758;52.122;5.404;2024-02-28T10:09:19;21.27;;;14.13;;
75413;SDS011;64758;52.122;5.404;2024-02-28T10:11:45;21.60;;;13.52;;
75413;SDS011;64758;52.122;5.404;2024-02-28T10:14:18;17.75;;;12.88;;
75413;SDS011;64758;52.122;5.404;2024-02-28T10:16:45;21.53;;;13.00;;
75413;SDS011;64758;52.122;5.404;2024-02-28T10:19:12;22.20;;;14.00;;
75413;SDS011;64758;52.122;5.404;2024-02-28T10:21:39;19.80;;;13.65;;
75413;SDS011;64758;52.122;5.404;2024-02-28T10:24:05;18.42;;;12.88;;
75413;SDS011;64758;52.122;5.404;2024-02-28T10:26:32;22.27;;;13.95;;
75413;SDS011;64758;52.122;5.404;2024-02-28T10:29:04;20.23;;;12.47;;
75413;SDS011;64758;52.122;5.404;2024-02-28T10:31:33;20.17;;;12.95;;
75413;SDS011;64758;52.122;5.404;2024-02-28T10:34:00;20.92;;;13.32;;
75413;SDS011;64758;52.122;5.404;2024-02-28T10:36:31;18.02;;;12.27;;
75413;SDS011;64758;52.122;5.404;2024-02-28T10:38:59;19.90;;;12.73;;
75413;SDS011;64758;52.122;5.404;2024-02-28T10:41:26;19.23;;;12.27;;
75413;SDS011;64758;52.122;5.404;2024-02-28T10:43:54;20.55;;;12.68;;
75413;SDS011;64758;52.122;5.404;2024-02-28T10:46:21;18.20;;;12.77;;
75413;SDS011;64758;52.122;5.404;2024-02-28T10:49:02;19.23;;;13.25;;
75413;SDS011;64758;52.122;5.404;2024-02-28T10:51:28;17.88;;;13.23;;
75413;SDS011;64758;52.122;5.404;2024-02-28T10:54:07;22.93;;;13.83;;
75413;SDS011;64758;52.122;5.404;2024-02-28T10:56:39;21.85;;;14.40;;
75413;SDS011;64758;52.122;5.404;2024-02-28T10:59:11;21.50;;;14.52;;
75413;SDS011;64758;52.122;5.404;2024-02-28T11:01:44;22.35;;;15.00;;
75413;SDS011;64758;52.122;5.404;2024-02-28T11:04:13;24.00;;;15.05;;
75413;SDS011;64758;52.122;5.404;2024-02-28T11:09:34;20.85;;;13.68;;
75413;SDS011;64758;52.122;5.404;2024-02-28T11:12:03;21.40;;;14.38;;
75413;SDS011;64758;52.122;5.404;2024-02-28T11:14:30;21.10;;;14.23;;
75413;SDS011;64758;52.122;5.404;2024-02-28T11:17:05;20.13;;;13.70;;
75413;SDS011;64758;52.122;5.404;2024-02-28T11:19:33;23.07;;;13.87;;
75413;SDS011;64758;52.122;5.404;2024-02-28T11:22:04;21.40;;;14.65;;
75413;SDS011;64758;52.122;5.404;2024-02-28T11:24:33;28.58;;;15.38;;
75413;SDS011;64758;52.122;5.404;2024-02-28T11:27:01;22.45;;;14.20;;
75413;SDS011;64758;52.122;5.404;2024-02-28T11:29:30;27.02;;;14.93;;
75413;SDS011;64758;52.122;5.404;2024-02-28T11:31:57;22.60;;;13.77;;
75413;SDS011;64758;52.122;5.404;2024-02-28T11:34:23;25.55;;;15.18;;
75413;SDS011;64758;52.122;5.404;2024-02-28T11:36:50;19.08;;;12.55;;
75413;SDS011;64758;52.122;5.404;2024-02-28T11:39:17;22.60;;;13.70;;
75413;SDS011;64758;52.122;5.404;2024-02-28T11:41:44;21.77;;;13.20;;
75413;SDS011;64758;52.122;5.404;2024-02-28T11:44:13;18.47;;;13.13;;
75413;SDS011;64758;52.122;5.404;2024-02-28T11:46:43;21.00;;;12.77;;
75413;SDS011;64758;52.122;5.404;2024-02-28T11:49:13;19.58;;;12.73;;
75413;SDS011;64758;52.122;5.404;2024-02-28T11:51:41;19.33;;;12.38;;
75413;SDS011;64758;52.122;5.404;2024-02-28T11:54:09;22.75;;;12.90;;
75413;SDS011;64758;52.122;5.404;2024-02-28T11:56:39;22.87;;;12.53;;
75413;SDS011;64758;52.122;5.404;2024-02-28T11:59:08;21.85;;;13.07;;
75413;SDS011;64758;52.122;5.404;2024-02-28T12:04:05;24.13;;;13.05;;
75413;SDS011;64758;52.122;5.404;2024-02-28T12:06:36;26.92;;;13.23;;
75413;SDS011;64758;52.122;5.404;2024-02-28T12:09:07;25.97;;;13.10;;
75413;SDS011;64758;52.122;5.404;2024-02-28T12:11:36;22.33;;;13.70;;
75413;SDS011;64758;52.122;5.404;2024-02-28T12:14:03;23.75;;;13.18;;
75413;SDS011;64758;52.122;5.404;2024-02-28T12:16:33;21.58;;;13.23;;
75413;SDS011;64758;52.122;5.404;2024-02-28T12:18:59;24.88;;;13.48;;
75413;SDS011;64758;52.122;5.404;2024-02-28T12:21:26;22.87;;;13.60;;
75413;SDS011;64758;52.122;5.404;2024-02-28T12:23:53;23.45;;;13.57;;
75413;SDS011;64758;52.122;5.404;2024-02-28T12:26:22;22.70;;;13.13;;
75413;SDS011;64758;52.122;5.404;2024-02-28T12:28:49;19.25;;;12.27;;
75413;SDS011;64758;52.122;5.404;2024-02-28T12:31:15;18.90;;;11.82;;
75413;SDS011;64758;52.122;5.404;2024-02-28T12:33:42;18.30;;;11.53;;
75413;SDS011;64758;52.122;5.404;2024-02-28T12:36:08;22.65;;;12.02;;
75413;SDS011;64758;52.122;5.404;2024-02-28T12:38:35;17.80;;;11.30;;
75413;SDS011;64758;52.122;5.404;2024-02-28T12:41:03;17.42;;;11.07;;
75413;SDS011;64758;52.122;5.404;2024-02-28T12:43:30;18.23;;;11.20;;
75413;SDS011;64758;52.122;5.404;2024-02-28T12:45:58;20.63;;;12.33;;
75413;SDS011;64758;52.122;5.404;2024-02-28T12:48:25;21.98;;;12.15;;
75413;SDS011;64758;52.122;5.404;2024-02-28T12:50:51;19.38;;;11.85;;
75413;SDS011;64758;52.122;5.404;2024-02-28T12:53:18;21.02;;;11.93;;
75413;SDS011;64758;52.122;5.404;2024-02-28T12:55:45;21.85;;;11.40;;
75413;SDS011;64758;52.122;5.404;2024-02-28T12:58:11;18.20;;;11.47;;
75413;SDS011;64758;52.122;5.404;2024-02-28T13:00:38;19.45;;;11.60;;
75413;SDS011;64758;52.122;5.404;2024-02-28T13:03:05;19.42;;;11.85;;
75413;SDS011;64758;52.122;5.404;2024-02-28T13:05:32;22.77;;;12.18;;
75413;SDS011;64758;52.122;5.404;2024-02-28T13:07:59;23.23;;;12.18;;
75413;SDS011;64758;52.122;5.404;2024-02-28T13:10:25;23.70;;;12.90;;
75413;SDS011;64758;52.122;5.404;2024-02-28T13:12:52;19.45;;;12.10;;
75413;SDS011;64758;52.122;5.404;2024-02-28T13:15:19;20.30;;;11.35;;
75413;SDS011;64758;52.122;5.404;2024-02-28T13:17:45;17.80;;;11.32;;
75413;SDS011;64758;52.122;5.404;2024-02-28T13:20:16;20.38;;;12.38;;
75413;SDS011;64758;52.122;5.404;2024-02-28T13:22:43;17.67;;;11.83;;
75413;SDS011;64758;52.122;5.404;2024-02-28T13:25:10;19.50;;;11.82;;
75413;SDS011;64758;52.122;5.404;2024-02-28T13:27:37;18.25;;;11.25;;
75413;SDS011;64758;52.122;5.404;2024-02-28T13:30:04;16.73;;;10.63;;
75413;SDS011;64758;52.122;5.404;2024-02-28T13:32:31;16.83;;;10.90;;
75413;SDS011;64758;52.122;5.404;2024-02-28T13:34:58;19.47;;;12.33;;
75413;SDS011;64758;52.122;5.404;2024-02-28T13:37:26;22.13;;;11.93;;
75413;SDS011;64758;52.122;5.404;2024-02-28T13:39:52;18.45;;;12.10;;
75413;SDS011;64758;52.122;5.404;2024-02-28T13:42:19;19.75;;;11.65;;
75413;SDS011;64758;52.122;5.404;2024-02-28T13:44:50;20.35;;;12.13;;
75413;SDS011;64758;52.122;5.404;2024-02-28T13:47:17;19.80;;;12.30;;
75413;SDS011;64758;52.122;5.404;2024-02-28T13:49:44;19.35;;;12.07;;
75413;SDS011;64758;52.122;5.404;2024-02-28T13:52:11;19.52;;;11.73;;
75413;SDS011;64758;52.122;5.404;2024-02-28T13:54:37;20.27;;;12.45;;
75413;SDS011;64758;52.122;5.404;2024-02-28T13:57:04;17.50;;;11.30;;
75413;SDS011;64758;52.122;5.404;2024-02-28T13:59:33;18.57;;;11.60;;
75413;SDS011;64758;52.122;5.404;2024-02-28T14:02:00;17.33;;;11.32;;
75413;SDS011;64758;52.122;5.404;2024-02-28T14:04:27;18.15;;;12.20;;
75413;SDS011;64758;52.122;5.404;2024-02-28T14:06:53;19.10;;;12.10;;
75413;SDS011;64758;52.122;5.404;2024-02-28T14:09:20;18.67;;;11.55;;
75413;SDS011;64758;52.122;5.404;2024-02-28T14:11:46;18.60;;;11.63;;
75413;SDS011;64758;52.122;5.404;2024-02-28T14:14:13;19.73;;;12.18;;
75413;SDS011;64758;52.122;5.404;2024-02-28T14:16:40;20.25;;;12.75;;
75413;SDS011;64758;52.122;5.404;2024-02-28T14:19:07;18.27;;;12.15;;
75413;SDS011;64758;52.122;5.404;2024-02-28T14:21:33;21.42;;;12.30;;
75413;SDS011;64758;52.122;5.404;2024-02-28T14:24:00;18.03;;;11.73;;
75413;SDS011;64758;52.122;5.404;2024-02-28T14:26:26;19.10;;;11.80;;
75413;SDS011;64758;52.122;5.404;2024-02-28T14:28:53;17.08;;;11.13;;
75413;SDS011;64758;52.122;5.404;2024-02-28T14:31:22;20.92;;;12.00;;